Huvudsida
METAR-TAF:

METAR-TAF

Flygplatser :

Kastrups flygplats

Köpenhamn, Danmark

latitud: 55-37N, longitud: 012-39E, höjd: 5 m

Aktuellt väderrapport

Denna rapport gjordes för 21 minuter sedan, klockan 22:50 UTC
Vind 6 kt från sydväst
Temperatur 12°C
Fuktighet 67%
Tryck 1018 hPa
Sikt 10 km eller mer

METAR: EKCH 202250Z AUTO 23006KT 9999 SCT220/// 12/06 Q1018 NOSIG

Tid: 01:11 (23:11 UTC)

Väderprognos

Denna rapport gjordes för 5 timmar och 55 minuter sedan, klockan 17:16 UTC
Prognos gäller från 20 kl. 18 UTC till 21 kl. 18 UTC
Vind 6 kt från sydväst
Sikt 10 km eller mer
Inga moln under 1 500 m eller inga cumulonimbus
Blir
från 21 kl. 09 UTC till 21 kl. 12 UTC
Vind 10 kt från ost/sydost

TAF: EKCH 201716Z 2018/2118 23006KT CAVOK BECMG 2109/2112 11010KT

Aktuella väderrapporter och prognoser från 4000 flygplatser (METAR- och TAF-rapporter).

De tillgängliga stationerna syns som gula och röda prickar på kartan.

För musen över prickarna för att se namnen på stationerna.

Klicka sedan för att få väderrapporter och prognoser.

För att ändra kartan: Klicka på de gröna knapparna med ett svart kors på för att zooma in; den gröna knappen med ett streck på för att zooma ut; eller på de gröna pilarna för angränsande kartor.


METAR-TAF: